Time;durP1;ratioP1;P1;durP2;ratioP2;P2;SDS_P1;SDS_P2;PMS_P1;PMS_P2;Temp;Humidity;BMP_temperature;BMP_pressure;BME280_temperature;BME280_humidity;BME280_pressure;Samples;Min_cycle;Max_cycle;Signal;HPM_P1;HPM_P2
2022/01/10 08:27:02;;;;;;;22.44;11.16;;;;;;;0.48;97.62;99590.03;2009965;80;20185;-74
2022/01/10 08:30:07;;;;;;;18.73;9.80;;;;;;;0.47;97.60;99588.31;2006876;80;20232;-71
2022/01/10 08:33:10;;;;;;;21.81;10.37;;;;;;;0.52;97.71;99591.03;2009752;78;22419;-71
2022/01/10 08:36:12;;;;;;;23.10;11.40;;;;;;;0.58;97.81;99596.38;2009772;80;20362;-71
2022/01/10 08:39:15;;;;;;;23.09;11.51;;;;;;;0.64;97.86;99605.97;2007554;80;20363;-72
2022/01/10 08:42:19;;;;;;;22.91;10.81;;;;;;;0.67;97.74;99606.06;2007586;80;20611;-72
2022/01/10 08:45:22;;;;;;;23.81;10.96;;;;;;;0.69;97.66;99612.09;2007000;80;20222;-71
2022/01/10 08:48:24;;;;;;;21.45;10.20;;;;;;;0.71;97.64;99618.16;2006816;79;22649;-71
2022/01/10 08:51:29;;;;;;;26.00;11.20;;;;;;;0.71;97.55;99624.13;2006690;80;20331;-71
2022/01/10 08:54:32;;;;;;;24.10;11.36;;;;;;;0.75;97.45;99633.69;2007110;80;20329;-72
2022/01/10 08:57:35;;;;;;;22.73;11.00;;;;;;;0.77;97.38;99626.94;2007454;80;20323;-72
2022/01/10 09:00:39;;;;;;;24.16;10.59;;;;;;;0.81;97.33;99628.78;2006268;78;20966;-71
2022/01/10 09:03:42;;;;;;;18.84;9.90;;;;;;;0.85;97.29;99633.19;2007752;80;20339;-71
2022/01/10 09:06:45;;;;;;;21.40;10.00;;;;;;;0.87;97.11;99643.47;2007505;80;20188;-71
2022/01/10 09:09:48;;;;;;;26.13;10.81;;;;;;;0.86;97.07;99644.28;2008245;80;20353;-71
2022/01/10 09:12:51;;;;;;;23.23;9.10;;;;;;;0.87;97.05;99648.59;2007218;80;20222;-71
2022/01/10 09:15:54;;;;;;;17.48;9.61;;;;;;;0.84;96.72;99653.59;2005492;78;20634;-71
2022/01/10 09:18:56;;;;;;;20.35;9.59;;;;;;;0.84;96.81;99656.16;2007548;80;20311;-71
2022/01/10 09:21:59;;;;;;;22.89;9.71;;;;;;;0.88;96.88;99658.88;2007152;80;21374;-71
2022/01/10 09:25:03;;;;;;;21.57;10.77;;;;;;;0.90;96.71;99669.19;2007061;80;20307;-71
2022/01/10 09:28:06;;;;;;;20.76;9.56;;;;;;;0.90;96.55;99677.72;2007458;80;20181;-71
2022/01/10 09:31:09;;;;;;;19.83;10.07;;;;;;;0.93;96.49;99688.88;2006266;78;20468;-71
2022/01/10 09:34:12;;;;;;;21.41;9.21;;;;;;;0.95;96.46;99689.81;2007520;80;20360;-71
2022/01/10 09:37:15;;;;;;;21.65;10.38;;;;;;;0.96;96.43;99689.84;2006891;80;20324;-71
2022/01/10 09:40:18;;;;;;;22.79;9.77;;;;;;;0.98;96.42;99688.22;2006164;80;20304;-71
2022/01/10 09:43:21;;;;;;;19.04;10.07;;;;;;;0.99;96.21;99702.75;2006054;80;20364;-70
2022/01/10 09:46:24;;;;;;;21.73;10.51;;;;;;;1.03;96.31;99702.03;2005516;80;23493;-71
2022/01/10 09:49:27;;;;;;;19.69;10.34;;;;;;;1.08;96.30;99705.69;2005655;80;20319;-71
2022/01/10 09:52:30;;;;;;;19.48;9.63;;;;;;;1.05;96.09;99715.75;2005612;80;20337;-71
2022/01/10 09:55:38;;;;;;;19.27;9.63;;;;;;;1.10;96.15;99719.38;2004540;80;20347;-71
2022/01/10 09:58:41;;;;;;;19.21;10.04;;;;;;;1.14;96.17;99728.91;2005210;80;20197;-72
2022/01/10 10:01:49;;;;;;;19.23;10.39;;;;;;;1.15;96.12;99720.41;2002888;78;21198;-71
2022/01/10 10:04:52;;;;;;;20.99;10.91;;;;;;;1.21;96.05;99724.88;2005548;80;20340;-72
2022/01/10 10:07:55;;;;;;;20.85;11.01;;;;;;;1.27;96.11;99727.69;2004966;80;21029;-71
2022/01/10 10:10:59;;;;;;;21.51;11.50;;;;;;;1.32;95.93;99745.78;2005336;80;21413;-71
2022/01/10 10:14:04;;;;;;;25.12;11.66;;;;;;;1.31;95.73;99744.03;2005199;80;21340;-71
2022/01/10 10:17:17;;;;;;;28.99;12.41;;;;;;;1.27;95.34;99749.84;2003829;78;22614;-71
2022/01/10 10:20:22;;;;;;;21.98;12.18;;;;;;;1.25;95.38;99764.22;2003763;80;20878;-71
2022/01/10 10:23:50;;;;;;;29.02;13.41;;;;;;;1.31;95.70;99767.91;2003840;80;20189;-71
2022/01/10 10:26:53;;;;;;;28.33;13.00;;;;;;;1.37;95.79;99755.34;2004594;80;20323;-71
2022/01/10 10:30:08;;;;;;;26.82;12.63;;;;;;;1.36;95.50;99761.28;2003181;80;20336;-71
2022/01/10 10:33:19;;;;;;;28.31;14.41;;;;;;;1.40;95.55;99764.81;1997904;78;20951;-71
2022/01/10 10:36:25;;;;;;;25.05;12.05;;;;;;;1.43;95.45;99767.50;1998246;81;20312;-71
2022/01/10 10:39:28;;;;;;;23.08;11.11;;;;;;;1.45;95.39;99771.00;1999495;81;20336;-71
2022/01/10 10:42:32;;;;;;;23.00;11.59;;;;;;;1.50;95.34;99774.59;1997932;80;20336;-71
2022/01/10 10:45:35;;;;;;;20.77;10.80;;;;;;;1.50;95.11;99774.59;1997361;78;20549;-71
2022/01/10 10:48:40;;;;;;;19.77;10.81;;;;;;;1.54;95.01;99790.94;2002345;80;20307;-71
2022/01/10 10:51:45;;;;;;;20.64;10.80;;;;;;;1.58;95.09;99796.22;2003334;80;20338;-71
2022/01/10 10:54:47;;;;;;;21.30;10.71;;;;;;;1.63;94.86;99798.97;2004028;80;20534;-71
2022/01/10 10:57:50;;;;;;;21.51;11.04;;;;;;;1.63;94.83;99804.09;2005587;80;20335;-72
2022/01/10 11:00:55;;;;;;;21.84;11.73;;;;;;;1.68;94.94;99802.56;2002912;78;23988;-71
2022/01/10 11:03:58;;;;;;;23.19;12.25;;;;;;;1.65;94.51;99807.59;2003592;80;20335;-71
2022/01/10 11:07:01;;;;;;;24.54;11.50;;;;;;;1.66;94.61;99814.44;2003505;80;20322;-71
2022/01/10 11:10:06;;;;;;;22.40;10.60;;;;;;;1.67;94.45;99814.50;2004827;80;20329;-71
2022/01/10 11:13:11;;;;;;;22.14;11.71;;;;;;;1.68;94.35;99826.47;2004013;80;21006;-71
2022/01/10 11:16:14;;;;;;;24.20;10.96;;;;;;;1.68;93.98;99823.91;2003253;78;23487;-71
2022/01/10 11:19:19;;;;;;;26.15;12.07;;;;;;;1.68;93.89;99835.84;2004026;80;20319;-71
2022/01/10 11:22:22;;;;;;;30.15;13.74;;;;;;;1.72;94.02;99838.56;2005508;80;20328;-71
2022/01/10 11:25:30;;;;;;;24.01;11.81;;;;;;;1.77;94.05;99837.03;2005791;80;20380;-71
2022/01/10 11:28:32;;;;;;;24.42;12.39;;;;;;;1.77;93.81;99842.16;2005995;80;20336;-71
2022/01/10 11:31:39;;;;;;;25.36;11.13;;;;;;;1.80;93.76;99838.88;2004562;78;21852;-71
2022/01/10 11:34:42;;;;;;;24.05;11.56;;;;;;;1.85;93.68;99850.16;2006053;80;20333;-71
2022/01/10 11:37:46;;;;;;;32.04;12.20;;;;;;;1.88;93.74;99847.69;2007082;80;20359;-71
2022/01/10 11:40:51;;;;;;;24.59;12.27;;;;;;;1.83;93.23;99859.47;2007368;80;20342;-71
2022/01/10 11:44:10;;;;;;;24.90;12.14;;;;;;;1.78;93.20;99858.41;2006813;80;20299;-71
2022/01/10 11:47:14;;;;;;;28.48;12.13;;;;;;;1.76;93.13;99858.34;2004717;78;21037;-71
2022/01/10 11:50:25;;;;;;;26.59;12.59;;;;;;;1.82;93.37;99865.41;2006467;80;20334;-71
2022/01/10 11:53:30;;;;;;;28.19;12.43;;;;;;;1.87;93.41;99868.13;2005616;80;20372;-71
2022/01/10 11:56:35;;;;;;;28.60;12.31;;;;;;;1.83;93.26;99868.84;2005163;80;20385;-71
2022/01/10 11:59:53;;;;;;;26.86;12.19;;;;;;;1.81;93.09;99871.34;2004444;80;20405;-71
2022/01/10 12:02:56;;;;;;;35.08;15.76;;;;;;;1.86;93.25;99876.63;2006091;78;27241;-70
2022/01/10 12:05:59;;;;;;;32.26;14.48;;;;;;;1.88;93.27;99880.13;2005726;80;20347;-71
2022/01/10 12:09:02;;;;;;;36.76;15.54;;;;;;;1.89;93.07;99881.84;2004996;80;20895;-71
2022/01/10 12:12:07;;;;;;;30.45;14.45;;;;;;;1.91;93.37;99883.66;2004959;80;20935;-71
2022/01/10 12:15:10;;;;;;;28.46;13.02;;;;;;;1.97;93.40;99885.56;2003590;80;20335;-71
2022/01/10 12:18:13;;;;;;;28.99;13.55;;;;;;;1.99;93.32;99892.53;2008123;80;22885;-71
2022/01/10 12:21:16;;;;;;;35.70;16.19;;;;;;;2.01;93.23;99893.44;2004227;80;20303;-71
2022/01/10 12:24:20;;;;;;;37.61;14.45;;;;;;;2.02;92.88;99894.31;2004966;80;21106;-71
2022/01/10 12:27:22;;;;;;;30.50;13.54;;;;;;;1.99;92.49;99904.47;2004963;80;20319;-71
2022/01/10 12:30:26;;;;;;;29.49;14.73;;;;;;;1.99;92.56;99896.78;2002700;78;25858;-71
2022/01/10 12:33:29;;;;;;;32.61;15.14;;;;;;;2.05;92.79;99897.88;2004789;80;20440;-71
2022/01/10 12:36:32;;;;;;;39.86;15.94;;;;;;;2.12;92.79;99897.25;2005311;80;20411;-71
2022/01/10 12:39:37;;;;;;;58.13;22.21;;;;;;;2.14;92.86;99902.44;2003197;80;20315;-71
2022/01/10 12:42:40;;;;;;;64.53;24.44;;;;;;;2.20;92.92;99909.50;2002715;80;20355;-71
2022/01/10 12:45:43;;;;;;;52.30;23.16;;;;;;;2.19;92.51;99911.19;2001898;78;20414;-71
2022/01/10 12:48:49;;;;;;;47.28;19.34;;;;;;;2.24;92.60;99908.78;2003718;80;21183;-71
2022/01/10 12:51:55;;;;;;;36.30;16.80;;;;;;;2.29;92.63;99905.56;2004326;80;21367;-73
2022/01/10 12:55:04;;;;;;;30.16;14.11;;;;;;;2.33;92.33;99907.41;2003409;80;20327;-71
2022/01/10 12:58:07;;;;;;;28.15;12.14;;;;;;;2.34;92.08;99921.13;2007837;80;20839;-71
2022/01/10 13:01:12;;;;;;;22.19;10.98;;;;;;;2.36;91.87;99919.50;2002714;78;20367;-71
2022/01/10 13:04:24;;;;;;;26.06;11.91;;;;;;;2.35;91.61;99935.69;2004195;80;20851;-71
2022/01/10 13:07:26;;;;;;;26.73;12.71;;;;;;;2.34;91.39;99942.50;2003668;80;20905;-71
2022/01/10 13:10:33;;;;;;;27.64;14.01;;;;;;;2.34;91.38;99932.25;2004225;80;20356;-71
2022/01/10 13:13:36;;;;;;;24.35;12.71;;;;;;;2.35;91.34;99949.38;2003894;80;20371;-71
2022/01/10 13:16:40;;;;;;;25.79;12.25;;;;;;;2.29;91.12;99945.69;2002615;80;21281;-71
2022/01/10 13:19:44;;;;;;;26.27;12.88;;;;;;;2.33;91.22;99948.41;2005635;80;20461;-71
2022/01/10 13:22:47;;;;;;;32.04;13.11;;;;;;;2.28;90.73;99951.63;2004430;80;20355;-71
2022/01/10 13:25:50;;;;;;;30.50;14.11;;;;;;;2.26;90.71;99951.59;2003967;80;20304;-71
2022/01/10 13:28:53;;;;;;;26.71;11.79;;;;;;;2.26;90.79;99949.03;2004632;80;20336;-71
2022/01/10 13:31:56;;;;;;;23.40;11.88;;;;;;;2.25;90.76;99954.97;2003907;78;21299;-70
2022/01/10 13:35:06;;;;;;;28.96;14.49;;;;;;;2.25;90.77;99960.09;2004546;80;20319;-70
2022/01/10 13:38:12;;;;;;;26.25;12.10;;;;;;;2.33;91.23;99966.34;2003042;80;20350;-70
2022/01/10 13:41:15;;;;;;;27.34;13.19;;;;;;;2.33;91.08;99970.59;2004481;80;20327;-70
2022/01/10 13:44:17;;;;;;;27.63;14.66;;;;;;;2.37;91.47;99975.94;2004843;80;20353;-70
2022/01/10 13:47:21;;;;;;;26.49;11.95;;;;;;;2.42;91.74;99989.78;2004775;78;21646;-70
2022/01/10 13:50:27;;;;;;;25.38;12.23;;;;;;;2.42;91.50;99983.78;2004072;80;20377;-70
2022/01/10 13:53:51;;;;;;;24.46;13.13;;;;;;;2.36;91.25;99991.25;2005315;80;20347;-70
2022/01/10 13:56:54;;;;;;;25.36;11.77;;;;;;;2.36;91.33;99996.38;2004556;80;20535;-71
2022/01/10 14:00:14;;;;;;;29.50;12.05;;;;;;;2.34;91.39;99996.31;2004681;80;20311;-71
2022/01/10 14:03:22;;;;;;;26.74;12.15;;;;;;;2.36;91.50;100010.06;2007707;78;22076;-71
2022/01/10 14:06:24;;;;;;;24.76;12.21;;;;;;;2.35;91.60;100016.00;2004452;80;20482;-71
2022/01/10 14:09:31;;;;;;;27.00;12.73;;;;;;;2.37;91.62;100014.38;2004788;80;20201;-71
2022/01/10 14:12:34;;;;;;;29.90;13.57;;;;;;;2.37;91.77;100023.75;2003509;80;20358;-71
2022/01/10 14:15:36;;;;;;;33.53;13.84;;;;;;;2.38;91.75;100020.38;2002482;78;20342;-71
2022/01/10 14:18:40;;;;;;;26.08;12.80;;;;;;;2.42;91.99;100027.34;2004003;80;20331;-71
2022/01/10 14:21:43;;;;;;;28.73;13.94;;;;;;;2.42;91.96;100032.47;2003510;80;20319;-71
2022/01/10 14:24:45;;;;;;;30.15;13.82;;;;;;;2.36;91.78;100040.81;2004408;80;20462;-71
2022/01/10 14:27:48;;;;;;;26.67;13.11;;;;;;;2.39;92.10;100043.47;2004080;80;20330;-71
2022/01/10 14:30:52;;;;;;;30.66;13.40;;;;;;;2.42;92.25;100051.28;2002593;78;21482;-71
2022/01/10 14:33:56;;;;;;;32.76;14.85;;;;;;;2.39;92.08;100052.84;2004632;80;20376;-71
2022/01/10 14:37:03;;;;;;;29.58;13.64;;;;;;;2.34;91.86;100057.81;2003749;80;20339;-71
2022/01/10 14:40:07;;;;;;;32.79;14.19;;;;;;;2.31;91.92;100067.03;2004451;80;20455;-71
2022/01/10 14:43:09;;;;;;;29.81;13.96;;;;;;;2.29;92.12;100063.56;2004060;80;20400;-71
2022/01/10 14:46:12;;;;;;;32.39;14.90;;;;;;;2.29;92.43;100067.00;2002413;78;23263;-71
2022/01/10 14:49:15;;;;;;;29.84;13.52;;;;;;;2.29;92.47;100077.22;2004820;80;20367;-71
2022/01/10 14:52:18;;;;;;;31.90;13.26;;;;;;;2.27;92.54;100090.81;2004053;80;20319;-71
2022/01/10 14:55:21;;;;;;;28.29;12.76;;;;;;;2.24;92.61;100093.25;2004057;80;20454;-71
2022/01/10 14:58:23;;;;;;;24.36;12.45;;;;;;;2.24;92.68;100096.69;2005960;80;20381;-71
2022/01/10 15:01:29;;;;;;;21.74;11.23;;;;;;;2.25;92.83;100095.00;2002479;78;20962;-71
2022/01/10 15:04:31;;;;;;;25.26;12.13;;;;;;;2.24;92.72;100101.81;2005023;80;20307;-71
2022/01/10 15:07:34;;;;;;;25.64;11.61;;;;;;;2.22;92.67;100097.44;2004182;80;20360;-71
2022/01/10 15:10:37;;;;;;;23.35;12.05;;;;;;;2.20;92.62;100101.63;2004268;80;20367;-71
2022/01/10 15:13:43;;;;;;;27.30;12.68;;;;;;;2.19;92.76;100103.31;2004302;80;20337;-71
2022/01/10 15:16:47;;;;;;;25.90;12.32;;;;;;;2.19;92.90;100115.25;2002497;78;21238;-71
2022/01/10 15:19:50;;;;;;;22.01;10.70;;;;;;;2.18;92.93;100116.94;2003609;80;20351;-71
2022/01/10 15:22:53;;;;;;;23.25;11.34;;;;;;;2.14;92.91;100115.03;2004484;80;20339;-71
2022/01/10 15:25:56;;;;;;;25.59;11.94;;;;;;;2.09;92.89;100119.13;2004059;80;20323;-71
2022/01/10 15:28:59;;;;;;;23.80;11.99;;;;;;;2.09;93.11;100121.69;2004075;80;20383;-73
2022/01/10 15:32:02;;;;;;;26.19;12.30;;;;;;;2.08;93.31;100127.59;2005228;78;130728;-72
2022/01/10 15:35:07;;;;;;;25.04;12.20;;;;;;;2.07;93.41;100136.09;2005590;80;20308;-72
2022/01/10 15:38:09;;;;;;;27.46;12.07;;;;;;;2.07;93.47;100136.97;2005062;80;20327;-72
2022/01/10 15:41:12;;;;;;;24.84;12.46;;;;;;;2.08;93.57;100148.09;2005492;80;20412;-72
2022/01/10 15:44:15;;;;;;;29.40;11.85;;;;;;;2.07;93.51;100148.91;2005750;80;20329;-72
2022/01/10 15:47:18;;;;;;;26.52;11.38;;;;;;;2.04;93.46;100151.34;2003659;78;31258;-71
2022/01/10 15:50:24;;;;;;;28.61;12.86;;;;;;;2.00;93.38;100152.91;2004552;80;20432;-71
2022/01/10 15:53:27;;;;;;;30.02;12.61;;;;;;;1.98;93.59;100162.22;2006290;80;21104;-71
2022/01/10 15:56:30;;;;;;;24.00;11.89;;;;;;;2.00;93.78;100169.97;2004964;80;20377;-71
2022/01/10 15:59:34;;;;;;;26.91;12.57;;;;;;;1.99;93.79;100170.78;2006117;80;20333;-71
2022/01/10 16:02:38;;;;;;;26.48;12.38;;;;;;;1.99;93.84;100181.91;2005405;78;20735;-72
2022/01/10 16:05:45;;;;;;;28.31;12.26;;;;;;;2.02;94.02;100186.28;2006583;80;21133;-71
2022/01/10 16:08:48;;;;;;;27.51;13.07;;;;;;;2.05;94.14;100187.28;2006348;80;20331;-75
2022/01/10 16:11:55;;;;;;;25.29;12.77;;;;;;;2.07;94.15;100193.34;2007207;80;20373;-74
2022/01/10 16:15:03;;;;;;;26.41;12.43;;;;;;;2.07;94.12;100202.69;2006805;80;20848;-71
2022/01/10 16:18:05;;;;;;;23.11;12.24;;;;;;;2.05;94.04;100205.19;2003453;78;51261;-71
2022/01/10 16:21:08;;;;;;;27.60;12.27;;;;;;;2.01;94.12;100211.00;2005918;80;20341;-71
2022/01/10 16:24:11;;;;;;;26.91;12.75;;;;;;;1.98;94.15;100216.00;2005984;80;20351;-71
2022/01/10 16:27:14;;;;;;;25.48;12.66;;;;;;;1.98;94.21;100218.56;2005178;80;20345;-71
2022/01/10 16:30:18;;;;;;;24.00;12.36;;;;;;;1.93;94.21;100224.28;2004188;80;20375;-71
2022/01/10 16:33:21;;;;;;;25.56;12.74;;;;;;;1.94;94.46;100231.16;2004996;78;20980;-71
2022/01/10 16:36:27;;;;;;;24.27;12.85;;;;;;;1.95;94.51;100235.47;2005506;80;20448;-71
2022/01/10 16:39:30;;;;;;;26.36;12.07;;;;;;;1.97;94.60;100241.53;2004902;80;20340;-71
2022/01/10 16:42:32;;;;;;;26.61;11.68;;;;;;;1.98;94.72;100246.75;2005660;80;20432;-71
2022/01/10 16:45:35;;;;;;;27.45;12.88;;;;;;;1.99;94.81;100250.19;2003936;78;48734;-71
2022/01/10 16:48:39;;;;;;;27.86;12.74;;;;;;;2.01;94.81;100257.13;2006178;80;21136;-71
2022/01/10 16:51:42;;;;;;;26.14;13.93;;;;;;;2.02;94.76;100255.44;2005371;80;20655;-71
2022/01/10 16:54:44;;;;;;;30.48;13.50;;;;;;;2.02;94.65;100265.66;2006196;80;20344;-71
2022/01/10 16:57:47;;;;;;;30.06;14.50;;;;;;;2.04;94.74;100270.03;2005282;80;20375;-71
2022/01/10 17:00:51;;;;;;;26.00;12.80;;;;;;;2.07;94.74;100267.63;2003239;78;21928;-71
2022/01/10 17:03:53;;;;;;;24.39;13.45;;;;;;;2.05;94.42;100279.47;2005487;80;20360;-71
2022/01/10 17:06:56;;;;;;;24.65;13.07;;;;;;;2.01;94.70;100285.28;2005668;80;20381;-71
2022/01/10 17:09:58;;;;;;;26.01;13.49;;;;;;;2.01;94.80;100276.72;2005638;80;20303;-71
2022/01/10 17:13:12;;;;;;;31.85;12.66;;;;;;;2.01;94.87;100284.41;2005497;80;20330;-71
2022/01/10 17:16:17;;;;;;;23.48;13.45;;;;;;;2.01;94.89;100299.78;2003457;78;22209;-71
2022/01/10 17:19:21;;;;;;;25.85;12.16;;;;;;;2.00;94.93;100298.91;2008526;80;20330;-71
2022/01/10 17:22:24;;;;;;;24.58;12.14;;;;;;;2.00;94.91;100300.59;2005370;80;20381;-71
2022/01/10 17:25:26;;;;;;;27.36;12.25;;;;;;;2.01;95.03;100310.03;2004782;80;20453;-71
2022/01/10 17:28:29;;;;;;;25.14;12.44;;;;;;;1.99;94.87;100317.63;2004900;80;20388;-71
2022/01/10 17:31:33;;;;;;;23.31;10.99;;;;;;;2.01;95.14;100320.25;2003476;80;20556;-71
2022/01/10 17:34:35;;;;;;;28.17;12.29;;;;;;;2.01;95.21;100328.81;2005080;80;20319;-71
2022/01/10 17:37:39;;;;;;;21.73;12.07;;;;;;;2.00;95.19;100327.06;2004521;80;20319;-71
2022/01/10 17:40:42;;;;;;;19.50;11.13;;;;;;;2.01;95.14;100328.81;2005232;80;20412;-71
2022/01/10 17:43:47;;;;;;;24.79;12.11;;;;;;;2.00;95.20;100337.31;2005204;80;20409;-71
2022/01/10 17:46:50;;;;;;;25.17;12.44;;;;;;;2.01;95.28;100341.63;2003484;78;21173;-71
2022/01/10 17:50:01;;;;;;;29.19;14.04;;;;;;;2.03;95.42;100352.81;2004490;80;20304;-71
2022/01/10 17:53:04;;;;;;;25.06;13.65;;;;;;;2.05;95.49;100350.31;2004834;80;20335;-71
2022/01/10 17:56:09;;;;;;;21.35;11.91;;;;;;;2.10;95.56;100353.97;2004940;80;20343;-71
2022/01/10 17:59:12;;;;;;;22.46;11.90;;;;;;;2.12;95.51;100365.16;2005110;80;20392;-71
2022/01/10 18:02:15;;;;;;;25.20;11.81;;;;;;;2.11;95.45;100366.81;2006665;78;25646;-71
2022/01/10 18:05:19;;;;;;;22.94;12.27;;;;;;;2.11;95.42;100364.28;2004405;80;20433;-71
2022/01/10 18:08:41;;;;;;;26.63;12.80;;;;;;;2.11;95.56;100363.38;2005966;80;20546;-71
2022/01/10 18:11:44;;;;;;;32.69;16.15;;;;;;;2.13;95.65;100372.03;2005006;80;20359;-71
2022/01/10 18:14:47;;;;;;;30.05;15.61;;;;;;;2.14;95.56;100381.47;2004918;80;20336;-71
2022/01/10 18:17:50;;;;;;;32.61;16.83;;;;;;;2.18;95.59;100385.06;2003352;78;21090;-71
2022/01/10 18:20:52;;;;;;;31.69;16.55;;;;;;;2.21;95.62;100391.19;2004993;80;20927;-71
2022/01/10 18:23:55;;;;;;;30.61;16.48;;;;;;;2.25;95.62;100394.75;2005331;80;20372;-72
2022/01/10 18:26:58;;;;;;;29.11;16.80;;;;;;;2.27;95.60;100399.13;2004845;80;20406;-71
2022/01/10 18:30:03;;;;;;;30.84;17.42;;;;;;;2.27;95.49;100409.38;2004557;80;20332;-71
2022/01/10 18:33:07;;;;;;;26.94;15.99;;;;;;;2.27;95.46;100411.06;2000211;78;21122;-71
2022/01/10 18:36:09;;;;;;;28.05;14.96;;;;;;;2.27;95.49;100414.50;2000077;81;20418;-71
2022/01/10 18:39:12;;;;;;;27.31;14.68;;;;;;;2.26;95.25;100417.88;2000515;81;20734;-71
2022/01/10 18:42:15;;;;;;;30.06;16.02;;;;;;;2.25;95.22;100422.94;1999637;81;20340;-71
2022/01/10 18:45:20;;;;;;;30.77;16.24;;;;;;;2.23;95.15;100427.13;2000120;80;20877;-71
2022/01/10 18:48:24;;;;;;;27.91;15.98;;;;;;;2.22;94.98;100420.25;2004939;78;24954;-71
2022/01/10 18:51:27;;;;;;;29.41;14.85;;;;;;;2.20;95.05;100422.75;2005354;80;20327;-71
2022/01/10 18:54:30;;;;;;;27.38;15.76;;;;;;;2.20;94.96;100424.44;2005613;80;20355;-71
2022/01/10 18:57:34;;;;;;;26.71;14.25;;;;;;;2.21;94.98;100434.75;2008627;80;20311;-71
2022/01/10 19:00:36;;;;;;;23.94;12.81;;;;;;;2.21;94.87;100434.75;2004159;78;23659;-71
2022/01/10 19:03:39;;;;;;;26.46;13.55;;;;;;;2.19;94.65;100438.94;2005284;80;20422;-71
2022/01/10 19:06:42;;;;;;;22.19;13.57;;;;;;;2.21;94.69;100439.88;2005733;80;20319;-71
2022/01/10 19:09:44;;;;;;;20.91;13.26;;;;;;;2.20;94.63;100435.56;2005940;80;20355;-71
2022/01/10 19:12:49;;;;;;;20.30;12.89;;;;;;;2.20;94.62;100433.00;2005264;80;20323;-71
2022/01/10 19:15:53;;;;;;;18.99;12.01;;;;;;;2.21;94.55;100433.88;2003681;78;20850;-71
2022/01/10 19:18:56;;;;;;;25.95;13.04;;;;;;;2.21;94.52;100439.88;2005463;80;20364;-71
2022/01/10 19:21:58;;;;;;;24.17;12.64;;;;;;;2.20;94.39;100439.81;2005982;80;20336;-71
2022/01/10 19:25:02;;;;;;;26.02;13.19;;;;;;;2.17;94.20;100448.22;2005823;80;20883;-71
2022/01/10 19:28:06;;;;;;;23.83;13.59;;;;;;;2.18;94.13;100456.78;2005755;80;20335;-71
2022/01/10 19:31:09;;;;;;;28.48;13.69;;;;;;;2.16;94.12;100455.84;2004224;78;22387;-71
2022/01/10 19:34:11;;;;;;;21.39;12.94;;;;;;;2.16;94.06;100456.72;2005825;80;20353;-71
2022/01/10 19:37:14;;;;;;;21.86;12.99;;;;;;;2.15;94.07;100460.06;2005182;80;20433;-71
2022/01/10 19:40:16;;;;;;;19.36;12.23;;;;;;;2.17;94.10;100457.59;2005652;80;20315;-71
2022/01/10 19:43:19;;;;;;;24.52;12.65;;;;;;;2.16;94.09;100456.72;2005459;80;20351;-71
2022/01/10 19:46:23;;;;;;;21.31;13.02;;;;;;;2.15;94.03;100448.94;2003398;78;21332;-71
2022/01/10 19:49:26;;;;;;;23.40;12.84;;;;;;;2.15;93.98;100457.50;2005788;80;20361;-71
2022/01/10 19:52:29;;;;;;;20.61;12.80;;;;;;;2.13;93.98;100475.38;2005674;80;20319;-71
2022/01/10 19:55:33;;;;;;;25.51;13.32;;;;;;;2.11;93.85;100465.84;2007991;80;20336;-71
2022/01/10 19:58:37;;;;;;;23.48;11.84;;;;;;;2.10;93.85;100482.91;2005800;80;20804;-71
2022/01/10 20:01:40;;;;;;;21.76;11.45;;;;;;;2.08;93.79;100483.66;2003561;78;20339;-71
2022/01/10 20:04:49;;;;;;;21.52;11.25;;;;;;;2.07;93.71;100480.22;2005929;80;20331;-72
2022/01/10 20:07:51;;;;;;;20.91;11.95;;;;;;;2.05;93.71;100478.38;2005410;80;20364;-71
2022/01/10 20:10:56;;;;;;;20.21;11.98;;;;;;;2.02;93.76;100483.38;2005799;80;20323;-71
2022/01/10 20:13:59;;;;;;;22.48;12.36;;;;;;;2.02;93.79;100483.38;2005455;80;20331;-71
2022/01/10 20:17:02;;;;;;;21.55;11.68;;;;;;;2.04;93.85;100482.63;2003884;78;22896;-71
2022/01/10 20:20:06;;;;;;;22.89;12.81;;;;;;;2.02;93.66;100483.38;2005165;80;20351;-71
2022/01/10 20:23:09;;;;;;;20.39;12.25;;;;;;;1.99;93.64;100498.59;2004918;80;20323;-71
2022/01/10 20:26:11;;;;;;;21.33;12.01;;;;;;;2.00;93.73;100497.78;2005602;80;20364;-71
2022/01/10 20:29:14;;;;;;;20.74;12.40;;;;;;;1.99;93.80;100496.91;2005361;80;20315;-71
2022/01/10 20:32:17;;;;;;;23.52;12.04;;;;;;;1.99;93.83;100498.59;2006482;78;23476;-71
2022/01/10 20:35:19;;;;;;;24.27;12.73;;;;;;;1.93;93.61;100493.16;2005218;80;20447;-71
2022/01/10 20:38:22;;;;;;;22.15;12.65;;;;;;;1.88;93.72;100504.88;2005482;80;20311;-71
2022/01/10 20:41:25;;;;;;;24.56;13.25;;;;;;;1.91;93.92;100512.72;2006043;80;20349;-71
2022/01/10 20:44:27;;;;;;;25.80;13.64;;;;;;;1.93;94.02;100500.84;2005083;80;20320;-71
2022/01/10 20:47:30;;;;;;;27.64;14.85;;;;;;;1.91;94.04;100505.91;2003455;78;20371;-72
2022/01/10 20:50:36;;;;;;;30.60;13.91;;;;;;;1.90;94.05;100509.28;2004969;80;20339;-70
2022/01/10 20:53:38;;;;;;;27.58;14.60;;;;;;;1.87;93.95;100510.81;2004705;80;20932;-70
2022/01/10 20:56:41;;;;;;;23.54;13.56;;;;;;;1.88;94.13;100507.44;2004710;80;20418;-71
2022/01/10 20:59:44;;;;;;;25.67;13.56;;;;;;;1.85;94.01;100504.75;2004681;80;20425;-71
2022/01/10 21:02:47;;;;;;;24.49;13.73;;;;;;;1.82;94.04;100502.91;2003778;78;20871;-72
2022/01/10 21:05:51;;;;;;;25.71;12.98;;;;;;;1.80;94.04;100515.66;2005210;80;20348;-71
2022/01/10 21:08:56;;;;;;;26.77;12.35;;;;;;;1.76;93.94;100521.41;2008437;80;20862;-71
2022/01/10 21:12:02;;;;;;;22.27;12.36;;;;;;;1.73;94.08;100516.13;2005154;80;20411;-71
2022/01/10 21:15:05;;;;;;;22.24;12.95;;;;;;;1.75;94.27;100526.44;2004401;80;20636;-71
2022/01/10 21:18:08;;;;;;;25.30;12.34;;;;;;;1.76;94.37;100531.63;2005343;80;21007;-70
2022/01/10 21:21:10;;;;;;;21.60;12.49;;;;;;;1.76;94.34;100535.88;2008032;80;20954;-72
2022/01/10 21:24:13;;;;;;;21.94;11.80;;;;;;;1.74;94.29;100540.06;2004764;80;20384;-71
2022/01/10 21:27:17;;;;;;;20.86;10.99;;;;;;;1.73;94.32;100538.28;2005169;80;20373;-72
2022/01/10 21:30:23;;;;;;;18.06;10.50;;;;;;;1.73;94.31;100540.84;2003661;80;20355;-71
2022/01/10 21:33:27;;;;;;;16.52;10.01;;;;;;;1.71;94.28;100545.91;2004852;80;20389;-71
2022/01/10 21:36:29;;;;;;;20.41;11.38;;;;;;;1.70;94.29;100554.38;2004260;80;20319;-71
2022/01/10 21:39:32;;;;;;;26.36;13.82;;;;;;;1.69;94.38;100541.50;2004789;80;20377;-71
2022/01/10 21:42:34;;;;;;;25.69;13.46;;;;;;;1.70;94.56;100554.38;2005290;80;20381;-71
2022/01/10 21:45:37;;;;;;;29.65;13.69;;;;;;;1.68;94.56;100558.56;2002687;78;23204;-71
2022/01/10 21:48:40;;;;;;;22.89;13.66;;;;;;;1.64;94.57;100555.78;2005096;80;20427;-71
2022/01/10 21:51:43;;;;;;;26.86;12.64;;;;;;;1.65;94.76;100557.53;2005169;80;20319;-71
2022/01/10 21:54:46;;;;;;;24.45;12.89;;;;;;;1.63;94.82;100561.69;2005538;80;20392;-74
2022/01/10 21:57:50;;;;;;;24.76;12.54;;;;;;;1.62;94.85;100565.94;2005701;80;20438;-71
2022/01/10 22:00:52;;;;;;;21.73;11.52;;;;;;;1.61;94.86;100563.28;2004849;78;21139;-72
2022/01/10 22:03:56;;;;;;;23.11;12.04;;;;;;;1.58;94.82;100571.69;2005120;80;20335;-72
2022/01/10 22:06:59;;;;;;;19.39;10.59;;;;;;;1.58;94.95;100573.38;2005031;80;20762;-73
2022/01/10 22:10:06;;;;;;;21.03;11.29;;;;;;;1.58;94.96;100573.38;2005309;80;20421;-71
2022/01/10 22:13:08;;;;;;;20.75;11.54;;;;;;;1.55;94.83;100563.84;2005565;80;20181;-71
2022/01/10 22:16:14;;;;;;;25.61;12.65;;;;;;;1.51;94.70;100572.19;2003214;78;20527;-71
2022/01/10 22:19:16;;;;;;;22.36;12.19;;;;;;;1.47;94.64;100589.06;2005055;80;20426;-71
2022/01/10 22:22:19;;;;;;;22.64;12.15;;;;;;;1.44;94.63;100585.50;2004440;80;20953;-71
2022/01/10 22:25:23;;;;;;;22.08;11.86;;;;;;;1.41;94.74;100580.19;2004573;80;20944;-72
2022/01/10 22:28:26;;;;;;;21.89;11.14;;;;;;;1.37;94.80;100579.16;2004984;80;20197;-71
2022/01/10 22:31:28;;;;;;;17.58;9.01;;;;;;;1.36;94.85;100592.75;2003121;78;20355;-71
2022/01/10 22:34:32;;;;;;;17.41;9.82;;;;;;;1.29;94.76;100592.38;2005708;80;20311;-71
2022/01/10 22:37:34;;;;;;;15.29;8.60;;;;;;;1.28;94.83;100595.72;2005361;80;20936;-71